createdAt,value
2018-02-16T00:00:45.809Z,1.10
2018-02-16T00:01:45.792Z,1.10
2018-02-16T00:02:45.779Z,1.10
2018-02-16T00:03:45.766Z,1.20
2018-02-16T00:04:45.755Z,1.10
2018-02-16T00:05:45.741Z,1.20
2018-02-16T00:06:45.727Z,1.20
2018-02-16T00:07:45.721Z,1.00
2018-02-16T00:08:45.706Z,1.10
2018-02-16T00:09:45.679Z,1.10
2018-02-16T00:10:45.679Z,1.10
2018-02-16T00:11:45.668Z,1.00
2018-02-16T00:12:45.648Z,1.20
2018-02-16T00:13:45.647Z,1.20
2018-02-16T00:14:45.631Z,1.00
2018-02-16T00:15:45.616Z,1.20
2018-02-16T00:16:45.602Z,1.30
2018-02-16T00:17:45.602Z,0.90
2018-02-16T00:18:45.581Z,1.20
2018-02-16T00:19:45.566Z,1.20
2018-02-16T00:20:45.554Z,1.10
2018-02-16T00:21:45.540Z,1.10
2018-02-16T00:22:45.528Z,1.10
2018-02-16T00:23:45.516Z,1.20
2018-02-16T00:24:45.503Z,1.00
2018-02-16T00:25:45.498Z,1.00
2018-02-16T00:26:45.477Z,1.10
2018-02-16T00:27:45.465Z,1.10
2018-02-16T00:28:45.452Z,1.10
2018-02-16T00:29:45.440Z,1.10
2018-02-16T00:30:45.427Z,1.30
2018-02-16T00:31:45.416Z,1.30
2018-02-16T00:32:45.409Z,0.90
2018-02-16T00:33:45.395Z,1.20
2018-02-16T00:34:45.378Z,1.00
2018-02-16T00:35:45.365Z,1.10
2018-02-16T00:36:45.352Z,1.10
2018-02-16T00:37:45.340Z,1.10
2018-02-16T00:38:45.329Z,1.10
2018-02-16T00:39:45.316Z,1.20
2018-02-16T00:40:45.305Z,1.10
2018-02-16T00:41:45.282Z,1.10
2018-02-16T00:42:45.276Z,1.10
2018-02-16T00:43:45.265Z,1.00
2018-02-16T00:44:45.252Z,1.00
2018-02-16T00:45:45.240Z,1.20
2018-02-16T00:46:45.228Z,1.00
2018-02-16T00:47:45.215Z,1.00
2018-02-16T00:48:45.202Z,1.10
2018-02-16T00:49:45.189Z,1.00
2018-02-16T00:50:45.188Z,1.00
2018-02-16T00:51:45.165Z,1.00
2018-02-16T00:52:45.152Z,1.20
2018-02-16T00:53:45.142Z,1.10
2018-02-16T00:54:45.128Z,1.20
2018-02-16T00:55:45.114Z,1.30
2018-02-16T00:56:45.102Z,1.20
2018-02-16T00:57:45.089Z,1.00
2018-02-16T00:58:45.076Z,1.30
2018-02-16T00:59:45.073Z,1.10
2018-02-16T01:00:45.054Z,1.10
2018-02-16T01:01:45.039Z,1.00
2018-02-16T01:02:45.028Z,1.00
2018-02-16T01:03:45.015Z,1.00
2018-02-16T01:04:45.004Z,1.00
2018-02-16T01:05:44.991Z,1.00
2018-02-16T01:06:44.977Z,1.00
2018-02-16T01:07:44.964Z,1.00
2018-02-16T01:08:44.965Z,1.10
2018-02-16T01:09:44.939Z,1.00
2018-02-16T01:10:44.927Z,1.10
2018-02-16T01:11:44.913Z,1.00
2018-02-16T01:12:44.900Z,1.20
2018-02-16T01:13:44.878Z,1.10
2018-02-16T01:14:44.876Z,0.90
2018-02-16T01:15:44.862Z,1.20
2018-02-16T01:16:44.849Z,1.10
2018-02-16T01:17:44.838Z,1.00
2018-02-16T01:18:44.837Z,1.10
2018-02-16T01:19:44.816Z,1.00
2018-02-16T01:20:44.801Z,1.00
2018-02-16T01:21:44.788Z,1.00
2018-02-16T01:22:44.773Z,1.10
2018-02-16T01:23:44.765Z,0.90
2018-02-16T01:24:44.758Z,1.10
2018-02-16T01:25:44.742Z,1.00
2018-02-16T01:26:44.728Z,1.00
2018-02-16T01:27:44.715Z,1.20
2018-02-16T01:28:44.701Z,1.00
2018-02-16T01:29:44.688Z,1.20
2018-02-16T01:30:44.676Z,1.00
2018-02-16T01:31:44.664Z,0.90
2018-02-16T01:32:44.652Z,1.00
2018-02-16T01:33:44.638Z,1.10
2018-02-16T01:34:44.625Z,0.90
2018-02-16T01:35:44.612Z,0.90
2018-02-16T01:36:44.600Z,1.10
2018-02-16T01:37:44.595Z,0.90
2018-02-16T01:38:44.576Z,1.00
2018-02-16T01:39:44.558Z,1.00
2018-02-16T01:40:44.551Z,1.10
2018-02-16T01:41:44.536Z,1.00
2018-02-16T01:42:44.526Z,1.10
2018-02-16T01:43:44.513Z,1.00
2018-02-16T01:44:44.500Z,1.00
2018-02-16T01:45:44.488Z,1.00
2018-02-16T01:46:44.478Z,0.90
2018-02-16T01:47:44.461Z,1.00
2018-02-16T01:48:44.461Z,0.90
2018-02-16T01:49:44.437Z,0.90
2018-02-16T01:50:44.425Z,1.00
2018-02-16T01:51:44.416Z,0.90
2018-02-16T01:52:44.401Z,1.00
2018-02-16T01:53:44.388Z,1.00
2018-02-16T01:54:44.376Z,1.10
2018-02-16T01:55:44.363Z,1.00
2018-02-16T01:56:44.349Z,0.90
2018-02-16T01:57:44.337Z,1.00
2018-02-16T01:58:44.319Z,1.10
2018-02-16T01:59:44.313Z,1.00
2018-02-16T02:00:44.297Z,0.80
2018-02-16T02:01:44.287Z,1.00
2018-02-16T02:02:44.278Z,0.90
2018-02-16T02:03:44.263Z,1.00
2018-02-16T02:04:44.250Z,1.00
2018-02-16T02:05:44.238Z,1.20
2018-02-16T02:06:44.223Z,1.00
2018-02-16T02:07:44.209Z,1.10
2018-02-16T02:08:44.194Z,1.20
2018-02-16T02:09:44.182Z,1.00
2018-02-16T02:10:44.179Z,1.00
2018-02-16T02:11:44.163Z,0.80
2018-02-16T02:12:44.151Z,0.90
2018-02-16T02:13:44.137Z,1.00
2018-02-16T02:14:44.119Z,1.00
2018-02-16T02:15:44.111Z,1.00
2018-02-16T02:16:44.099Z,1.10
2018-02-16T02:17:44.087Z,0.90
2018-02-16T02:18:44.075Z,1.00
2018-02-16T02:19:44.049Z,1.10
2018-02-16T02:20:44.045Z,0.90
2018-02-16T02:21:44.037Z,1.00
2018-02-16T02:22:44.031Z,0.90
2018-02-16T02:23:44.012Z,1.00
2018-02-16T02:24:44.000Z,1.00
2018-02-16T02:25:43.987Z,0.90
2018-02-16T02:26:43.987Z,0.90
2018-02-16T02:27:43.962Z,1.00
2018-02-16T02:28:43.948Z,1.00
2018-02-16T02:29:43.938Z,0.90
2018-02-16T02:30:43.918Z,0.90
2018-02-16T02:31:43.912Z,0.80
2018-02-16T02:32:43.897Z,1.10
2018-02-16T02:33:43.887Z,1.10
2018-02-16T02:34:43.874Z,1.00
2018-02-16T02:35:43.865Z,0.90
2018-02-16T02:36:43.848Z,1.00
2018-02-16T02:37:43.837Z,0.90
2018-02-16T02:38:43.824Z,1.10
2018-02-16T02:39:43.809Z,1.00
2018-02-16T02:40:43.798Z,1.00
2018-02-16T02:41:43.779Z,1.00
2018-02-16T02:42:43.785Z,0.90
2018-02-16T02:43:43.761Z,1.00
2018-02-16T02:44:43.748Z,0.80
2018-02-16T02:45:43.736Z,0.90
2018-02-16T02:46:43.725Z,0.90
2018-02-16T02:47:43.711Z,0.90
2018-02-16T02:48:43.698Z,0.90
2018-02-16T02:49:43.690Z,0.90
2018-02-16T02:50:43.676Z,0.90
2018-02-16T02:51:43.662Z,1.00
2018-02-16T02:52:43.646Z,0.90
2018-02-16T02:53:43.636Z,0.90
2018-02-16T02:54:43.632Z,0.90
2018-02-16T02:55:43.606Z,0.90
2018-02-16T02:56:43.601Z,0.80
2018-02-16T02:57:43.586Z,0.90
2018-02-16T02:58:43.571Z,1.00
2018-02-16T02:59:43.560Z,0.90
2018-02-16T03:00:43.551Z,0.90
2018-02-16T03:01:43.534Z,1.10
2018-02-16T03:02:43.522Z,1.00
2018-02-16T03:03:43.512Z,1.10
2018-02-16T03:04:43.496Z,1.00
2018-02-16T03:05:43.482Z,1.10
2018-02-16T03:06:43.471Z,0.90
2018-02-16T03:07:43.460Z,0.90
2018-02-16T03:08:43.451Z,0.90
2018-02-16T03:09:43.439Z,1.00
2018-02-16T03:10:43.423Z,0.80
2018-02-16T03:11:43.409Z,1.00
2018-02-16T03:12:43.393Z,1.00
2018-02-16T03:13:43.387Z,0.90
2018-02-16T03:14:43.379Z,0.80
2018-02-16T03:15:43.359Z,0.90
2018-02-16T03:16:43.346Z,1.00
2018-02-16T03:17:43.333Z,0.90
2018-02-16T03:18:43.321Z,0.90
2018-02-16T03:19:43.308Z,0.90
2018-02-16T03:20:43.296Z,1.10
2018-02-16T03:21:43.284Z,0.80
2018-02-16T03:22:43.270Z,1.00
2018-02-16T03:23:43.258Z,1.00
2018-02-16T03:24:43.253Z,0.90
2018-02-16T03:25:43.234Z,0.90
2018-02-16T03:26:43.220Z,1.00
2018-02-16T03:27:43.209Z,0.90
2018-02-16T03:28:43.195Z,0.90
2018-02-16T03:29:43.187Z,0.90
2018-02-16T03:30:43.165Z,0.90
2018-02-16T03:31:43.159Z,1.00
2018-02-16T03:32:43.144Z,1.00
2018-02-16T03:33:43.132Z,1.00
2018-02-16T03:34:43.120Z,0.90
2018-02-16T03:35:43.108Z,1.00
2018-02-16T03:36:43.095Z,0.90
2018-02-16T03:37:43.082Z,1.00
2018-02-16T03:38:43.069Z,1.10
2018-02-16T03:39:43.068Z,0.90
2018-02-16T03:40:43.041Z,0.90
2018-02-16T03:41:43.038Z,0.90
2018-02-16T03:42:43.023Z,0.90
2018-02-16T03:43:43.015Z,0.80
2018-02-16T03:44:42.993Z,1.00
2018-02-16T03:45:42.968Z,0.90
2018-02-16T03:46:42.970Z,0.90
2018-02-16T03:47:42.957Z,0.90
2018-02-16T03:48:42.944Z,0.90
2018-02-16T03:49:42.930Z,1.00
2018-02-16T03:50:42.919Z,0.90
2018-02-16T03:51:42.905Z,0.90
2018-02-16T03:52:42.892Z,1.00
2018-02-16T03:53:42.881Z,0.90
2018-02-16T03:54:42.874Z,0.80
2018-02-16T03:55:42.856Z,0.90
2018-02-16T03:56:42.845Z,0.90
2018-02-16T03:57:42.829Z,1.00
2018-02-16T03:58:42.818Z,0.90
2018-02-16T03:59:42.804Z,1.00
2018-02-16T04:00:42.793Z,0.80
2018-02-16T04:01:42.782Z,0.90
2018-02-16T04:02:42.768Z,0.90
2018-02-16T04:03:42.757Z,1.00
2018-02-16T04:04:42.742Z,0.90
2018-02-16T04:05:42.742Z,0.80
2018-02-16T04:06:42.717Z,1.00
2018-02-16T04:07:42.706Z,0.90
2018-02-16T04:08:42.694Z,0.90
2018-02-16T04:09:42.678Z,1.10
2018-02-16T04:10:42.655Z,1.00
2018-02-16T04:11:42.653Z,0.90
2018-02-16T04:12:42.637Z,0.90
2018-02-16T04:13:42.627Z,0.90
2018-02-16T04:14:42.620Z,1.00
2018-02-16T04:15:42.604Z,0.90
2018-02-16T04:16:42.594Z,1.00
2018-02-16T04:17:42.579Z,0.90
2018-02-16T04:18:42.566Z,1.00
2018-02-16T04:19:42.556Z,1.00
2018-02-16T04:20:42.541Z,0.80
2018-02-16T04:21:42.534Z,0.90
2018-02-16T04:22:42.520Z,0.90
2018-02-16T04:23:42.504Z,0.90
2018-02-16T04:24:42.492Z,1.00
2018-02-16T04:25:42.478Z,1.00
2018-02-16T04:26:42.467Z,0.90
2018-02-16T04:27:42.456Z,0.90
2018-02-16T04:28:42.446Z,0.90
2018-02-16T04:29:42.428Z,0.80
2018-02-16T04:30:42.415Z,0.90
2018-02-16T04:31:42.416Z,0.90
2018-02-16T04:32:42.391Z,0.80
2018-02-16T04:33:42.379Z,0.90
2018-02-16T04:34:42.366Z,1.00
2018-02-16T04:35:42.353Z,1.10
2018-02-16T04:36:42.340Z,0.90
2018-02-16T04:37:42.327Z,1.10
2018-02-16T04:38:42.318Z,0.90
2018-02-16T04:39:42.304Z,0.90
2018-02-16T04:40:42.289Z,0.90
2018-02-16T04:41:42.277Z,0.80
2018-02-16T04:42:42.265Z,0.80
2018-02-16T04:43:42.251Z,0.90
2018-02-16T04:44:42.239Z,0.90
2018-02-16T04:45:42.228Z,0.90
2018-02-16T04:46:42.218Z,0.90
2018-02-16T04:47:42.203Z,1.00
2018-02-16T04:48:42.189Z,0.80
2018-02-16T04:49:42.177Z,1.00
2018-02-16T04:50:42.164Z,0.80
2018-02-16T04:51:42.163Z,1.00
2018-02-16T04:52:42.139Z,0.90
2018-02-16T04:53:42.126Z,1.00
2018-02-16T04:54:42.113Z,0.80
2018-02-16T04:55:42.103Z,0.80
2018-02-16T04:56:42.089Z,0.80
2018-02-16T04:57:42.076Z,0.80
2018-02-16T04:58:42.064Z,0.80
2018-02-16T04:59:42.052Z,0.80
2018-02-16T05:00:42.040Z,0.90
2018-02-16T05:01:42.026Z,0.90
2018-02-16T05:02:42.006Z,0.90
2018-02-16T05:03:42.002Z,1.10
2018-02-16T05:04:41.985Z,0.90
2018-02-16T05:05:41.974Z,0.90
2018-02-16T05:06:41.964Z,1.00
2018-02-16T05:07:41.951Z,0.90
2018-02-16T05:08:41.941Z,0.90
2018-02-16T05:09:41.914Z,0.90
2018-02-16T05:10:41.927Z,0.90
2018-02-16T05:11:41.897Z,0.90
2018-02-16T05:12:41.881Z,0.80
2018-02-16T05:13:41.875Z,0.80
2018-02-16T05:14:41.867Z,0.80
2018-02-16T05:15:41.850Z,0.90
2018-02-16T05:16:41.838Z,1.00
2018-02-16T05:17:41.825Z,0.90
2018-02-16T05:18:41.817Z,0.90
2018-02-16T05:19:41.800Z,0.90
2018-02-16T05:20:41.785Z,0.90
2018-02-16T05:21:41.777Z,0.90
2018-02-16T05:22:41.763Z,0.90
2018-02-16T05:23:41.742Z,0.70
2018-02-16T05:24:41.736Z,0.90
2018-02-16T05:25:41.723Z,0.90
2018-02-16T05:26:41.719Z,0.90
2018-02-16T05:27:41.699Z,0.90
2018-02-16T05:28:41.686Z,0.90
2018-02-16T05:29:41.674Z,1.10
2018-02-16T05:30:41.659Z,0.90
2018-02-16T05:31:41.660Z,1.00
2018-02-16T05:32:41.645Z,1.00
2018-02-16T05:33:41.623Z,1.00
2018-02-16T05:34:41.610Z,1.00
2018-02-16T05:35:41.600Z,1.00
2018-02-16T05:36:41.585Z,1.00
2018-02-16T05:37:41.573Z,1.10
2018-02-16T05:38:41.561Z,0.90
2018-02-16T05:39:41.548Z,0.90
2018-02-16T05:40:41.534Z,1.00
2018-02-16T05:41:41.526Z,0.80
2018-02-16T05:42:41.510Z,0.70
2018-02-16T05:43:41.498Z,0.90
2018-02-16T05:44:41.486Z,1.00
2018-02-16T05:45:41.482Z,0.80
2018-02-16T05:46:41.460Z,0.80
2018-02-16T05:47:41.448Z,0.80
2018-02-16T05:48:41.434Z,0.90
2018-02-16T05:49:41.422Z,0.90
2018-02-16T05:50:41.410Z,0.90
2018-02-16T05:51:41.397Z,0.90
2018-02-16T05:52:41.384Z,1.00
2018-02-16T05:53:41.378Z,0.80
2018-02-16T05:54:41.359Z,0.70
2018-02-16T05:55:41.347Z,0.90
2018-02-16T05:56:41.351Z,1.00
2018-02-16T05:57:41.318Z,1.00
2018-02-16T05:58:41.309Z,1.00
2018-02-16T05:59:41.288Z,0.80
2018-02-16T06:00:41.283Z,1.00
2018-02-16T06:01:41.274Z,1.00
2018-02-16T06:02:41.259Z,0.80
2018-02-16T06:03:41.247Z,0.80
2018-02-16T06:04:41.234Z,0.90
2018-02-16T06:05:41.222Z,0.90
2018-02-16T06:06:41.209Z,1.00
2018-02-16T06:07:41.234Z,0.90
2018-02-16T06:08:41.183Z,0.90
2018-02-16T06:09:41.178Z,0.90
2018-02-16T06:10:41.155Z,0.90
2018-02-16T06:11:41.155Z,0.80
2018-02-16T06:12:41.127Z,1.00
2018-02-16T06:13:41.122Z,0.90
2018-02-16T06:14:41.111Z,0.90
2018-02-16T06:15:41.096Z,0.90
2018-02-16T06:16:41.081Z,0.90
2018-02-16T06:17:41.066Z,0.90
2018-02-16T06:18:41.067Z,0.80
2018-02-16T06:19:41.046Z,1.00
2018-02-16T06:20:41.032Z,0.90
2018-02-16T06:21:41.019Z,0.90
2018-02-16T06:22:41.006Z,0.90
2018-02-16T06:23:40.993Z,0.70
2018-02-16T06:24:40.980Z,1.10
2018-02-16T06:25:40.977Z,1.00
2018-02-16T06:26:40.957Z,0.90
2018-02-16T06:27:40.945Z,1.00
2018-02-16T06:28:40.934Z,0.90
2018-02-16T06:29:40.918Z,1.00
2018-02-16T06:30:40.906Z,0.90
2018-02-16T06:31:40.895Z,0.90
2018-02-16T06:32:40.877Z,0.80
2018-02-16T06:33:40.858Z,0.90
2018-02-16T06:34:40.859Z,0.90
2018-02-16T06:35:40.844Z,0.80
2018-02-16T06:36:40.830Z,0.80
2018-02-16T06:37:40.820Z,0.90
2018-02-16T06:38:40.804Z,0.90
2018-02-16T06:39:40.794Z,1.00
2018-02-16T06:40:40.782Z,0.90
2018-02-16T06:41:40.767Z,0.80
2018-02-16T06:42:40.755Z,0.80
2018-02-16T06:43:40.742Z,0.80
2018-02-16T06:44:40.729Z,0.90
2018-02-16T06:45:40.716Z,1.00
2018-02-16T06:46:40.710Z,0.80
2018-02-16T06:47:40.696Z,0.70
2018-02-16T06:48:40.681Z,0.90
2018-02-16T06:49:40.666Z,1.00
2018-02-16T06:50:40.666Z,1.00
2018-02-16T06:51:40.642Z,0.90
2018-02-16T06:52:40.628Z,0.70
2018-02-16T06:53:40.616Z,0.90
2018-02-16T06:54:40.604Z,1.10
2018-02-16T06:55:40.592Z,0.80
2018-02-16T06:56:40.584Z,0.90
2018-02-16T06:57:40.578Z,1.00
2018-02-16T06:58:40.553Z,1.10
2018-02-16T06:59:40.534Z,0.80
2018-02-16T07:00:40.526Z,0.80
2018-02-16T07:01:40.504Z,0.80
2018-02-16T07:02:40.502Z,1.00
2018-02-16T07:03:40.490Z,0.90
2018-02-16T07:04:40.475Z,1.00
2018-02-16T07:05:40.473Z,0.90
2018-02-16T07:06:40.459Z,1.00
2018-02-16T07:07:40.439Z,1.10
2018-02-16T07:08:40.431Z,1.00
2018-02-16T07:09:40.413Z,0.90
2018-02-16T07:10:40.401Z,1.00
2018-02-16T07:11:40.389Z,1.00
2018-02-16T07:12:40.376Z,0.90
2018-02-16T07:13:40.361Z,1.00
2018-02-16T07:14:40.343Z,0.90
2018-02-16T07:15:40.340Z,0.90
2018-02-16T07:16:40.328Z,0.70
2018-02-16T07:17:40.312Z,0.90
2018-02-16T07:18:40.300Z,0.90
2018-02-16T07:19:40.287Z,1.00
2018-02-16T07:20:40.275Z,0.90
2018-02-16T07:21:40.265Z,1.00
2018-02-16T07:22:40.251Z,0.90
2018-02-16T07:23:40.237Z,0.80
2018-02-16T07:24:40.224Z,0.90
2018-02-16T07:25:40.211Z,1.00
2018-02-16T07:26:40.200Z,1.00
2018-02-16T07:27:40.187Z,1.00
2018-02-16T07:28:40.174Z,1.00
2018-02-16T07:29:40.162Z,1.00
2018-02-16T07:30:40.150Z,1.00
2018-02-16T07:31:40.136Z,0.80
2018-02-16T07:32:40.123Z,0.90
2018-02-16T07:33:40.117Z,0.90
2018-02-16T07:34:40.099Z,1.00
2018-02-16T07:35:40.086Z,1.00
2018-02-16T07:36:40.090Z,1.00
2018-02-16T07:37:40.061Z,1.00
2018-02-16T07:38:40.043Z,0.80
2018-02-16T07:39:40.044Z,0.90
2018-02-16T07:40:40.029Z,0.90
2018-02-16T07:41:40.016Z,0.80
2018-02-16T07:42:40.005Z,1.00
2018-02-16T07:43:39.983Z,0.80
2018-02-16T07:44:39.973Z,0.90
2018-02-16T07:45:39.961Z,0.90
2018-02-16T07:46:39.948Z,0.90
2018-02-16T07:47:39.939Z,0.90
2018-02-16T07:48:39.927Z,0.70
2018-02-16T07:49:39.911Z,1.00
2018-02-16T07:50:39.901Z,1.00
2018-02-16T07:51:39.886Z,1.10
2018-02-16T07:52:39.873Z,0.80
2018-02-16T07:53:39.860Z,1.00
2018-02-16T07:54:39.850Z,1.00
2018-02-16T07:55:39.836Z,1.00
2018-02-16T07:56:39.823Z,0.90
2018-02-16T07:57:39.810Z,0.80
2018-02-16T07:58:39.798Z,1.00
2018-02-16T07:59:39.786Z,1.00
2018-02-16T08:00:39.772Z,1.00
2018-02-16T08:01:39.761Z,0.90
2018-02-16T08:02:39.747Z,0.80
2018-02-16T08:03:39.735Z,1.20
2018-02-16T08:04:39.722Z,1.10
2018-02-16T08:05:39.713Z,0.90
2018-02-16T08:06:39.698Z,1.10
2018-02-16T08:07:39.685Z,0.90
2018-02-16T08:08:39.673Z,1.10
2018-02-16T08:09:39.659Z,1.00
2018-02-16T08:10:39.647Z,1.10
2018-02-16T08:11:39.633Z,1.00
2018-02-16T08:12:39.620Z,1.10
2018-02-16T08:13:39.609Z,1.10
2018-02-16T08:14:39.597Z,1.00
2018-02-16T08:15:39.584Z,1.00
2018-02-16T08:16:39.572Z,0.80
2018-02-16T08:17:39.559Z,0.90
2018-02-16T08:18:39.548Z,1.00
2018-02-16T08:19:39.539Z,1.00
2018-02-16T08:20:39.522Z,1.00
2018-02-16T08:21:39.509Z,1.20
2018-02-16T08:22:39.497Z,1.10
2018-02-16T08:23:39.485Z,1.00
2018-02-16T08:24:39.644Z,1.10
2018-02-16T08:25:39.459Z,1.00
2018-02-16T08:26:39.447Z,0.90
2018-02-16T08:27:39.424Z,1.10
2018-02-16T08:28:39.420Z,1.00
2018-02-16T08:29:39.406Z,1.30
2018-02-16T08:30:39.396Z,0.90
2018-02-16T08:31:39.387Z,1.10
2018-02-16T08:32:39.371Z,1.10
2018-02-16T08:33:39.359Z,1.00
2018-02-16T08:34:39.347Z,1.00
2018-02-16T08:35:39.322Z,1.10
2018-02-16T08:36:39.323Z,1.00
2018-02-16T08:37:39.309Z,1.10
2018-02-16T08:38:39.298Z,1.10
2018-02-16T08:39:39.287Z,1.10
2018-02-16T08:40:39.271Z,1.00
2018-02-16T08:41:39.257Z,1.10
2018-02-16T08:42:39.247Z,1.00
2018-02-16T08:43:39.233Z,1.30
2018-02-16T08:44:39.217Z,1.00
2018-02-16T08:45:39.205Z,1.00
2018-02-16T08:46:39.196Z,1.10
2018-02-16T08:47:39.187Z,1.10
2018-02-16T08:48:39.170Z,1.00
2018-02-16T08:49:39.158Z,1.00
2018-02-16T08:50:39.145Z,1.00
2018-02-16T08:51:39.133Z,1.10
2018-02-16T08:52:39.570Z,1.10
2018-02-16T08:53:39.110Z,1.20
2018-02-16T08:54:39.096Z,1.30
2018-02-16T08:55:39.082Z,1.20
2018-02-16T08:56:39.388Z,0.90
2018-02-16T08:57:39.065Z,1.00
2018-02-16T08:58:39.050Z,1.10
2018-02-16T08:59:39.035Z,1.10
2018-02-16T09:00:39.020Z,1.20
2018-02-16T09:01:39.006Z,1.00
2018-02-16T09:02:38.995Z,1.20
2018-02-16T09:03:38.989Z,0.80
2018-02-16T09:04:38.969Z,1.20
2018-02-16T09:05:38.957Z,1.10
2018-02-16T09:06:38.946Z,1.10
2018-02-16T09:07:38.932Z,1.10
2018-02-16T09:08:38.918Z,1.20
2018-02-16T09:09:38.906Z,1.00
2018-02-16T09:10:38.905Z,1.20
2018-02-16T09:11:38.882Z,1.10
2018-02-16T09:12:38.869Z,1.30
2018-02-16T09:13:38.856Z,1.10
2018-02-16T09:14:38.845Z,1.10
2018-02-16T09:15:38.834Z,1.00
2018-02-16T09:16:38.828Z,1.10
2018-02-16T09:17:38.798Z,1.30
2018-02-16T09:18:38.798Z,1.10
2018-02-16T09:19:38.783Z,1.10
2018-02-16T09:20:38.768Z,1.20
2018-02-16T09:21:38.757Z,1.10
2018-02-16T09:22:38.743Z,0.90
2018-02-16T09:23:38.731Z,1.10
2018-02-16T09:24:38.719Z,1.20
2018-02-16T09:25:38.711Z,1.20
2018-02-16T09:26:38.694Z,1.00
2018-02-16T09:27:38.680Z,1.10
2018-02-16T09:28:38.665Z,1.30
2018-02-16T09:29:38.655Z,1.20
2018-02-16T09:30:38.643Z,1.40
2018-02-16T09:31:38.636Z,1.20
2018-02-16T09:32:38.624Z,1.10
2018-02-16T09:33:38.606Z,1.10
2018-02-16T09:34:38.593Z,1.20
2018-02-16T09:35:38.581Z,1.20
2018-02-16T09:36:38.576Z,1.10
2018-02-16T09:37:38.566Z,1.10
2018-02-16T09:38:38.543Z,1.00
2018-02-16T09:39:38.530Z,1.10
2018-02-16T09:40:38.517Z,1.20
2018-02-16T09:41:38.506Z,1.10
2018-02-16T09:42:38.493Z,1.30
2018-02-16T09:43:38.475Z,1.40
2018-02-16T09:44:38.472Z,1.20
2018-02-16T09:45:38.457Z,1.30
2018-02-16T09:46:38.434Z,1.30
2018-02-16T09:47:38.427Z,1.20
2018-02-16T09:48:38.416Z,1.20
2018-02-16T09:49:38.409Z,1.00
2018-02-16T09:50:38.384Z,1.20
2018-02-16T09:51:38.383Z,1.20
2018-02-16T09:52:38.367Z,1.20
2018-02-16T09:53:38.354Z,1.00
2018-02-16T09:54:38.342Z,1.30
2018-02-16T09:55:38.329Z,1.20
2018-02-16T09:56:38.317Z,1.20
2018-02-16T09:57:38.304Z,1.30
2018-02-16T09:58:38.295Z,1.20
2018-02-16T09:59:38.280Z,1.20
2018-02-16T10:00:38.280Z,1.10
2018-02-16T10:01:38.254Z,1.20
2018-02-16T10:02:38.243Z,1.20
2018-02-16T10:03:38.231Z,1.10
2018-02-16T10:04:38.216Z,1.10
2018-02-16T10:05:38.206Z,1.20
2018-02-16T10:06:38.194Z,1.30
2018-02-16T10:07:38.179Z,1.30
2018-02-16T10:08:38.166Z,1.30
2018-02-16T10:09:38.153Z,1.10
2018-02-16T10:10:38.140Z,1.20
2018-02-16T10:11:38.129Z,1.30
2018-02-16T10:12:38.117Z,1.30
2018-02-16T10:13:38.109Z,1.10
2018-02-16T10:14:38.091Z,1.10
2018-02-16T10:15:38.076Z,1.10
2018-02-16T10:16:38.066Z,1.10
2018-02-16T10:17:38.054Z,1.30
2018-02-16T10:18:38.042Z,1.20
2018-02-16T10:19:38.028Z,1.40
2018-02-16T10:20:38.015Z,1.30
2018-02-16T10:21:38.001Z,1.10
2018-02-16T10:22:37.984Z,1.10
2018-02-16T10:23:37.978Z,1.30
2018-02-16T10:24:37.957Z,1.10
2018-02-16T10:25:37.953Z,1.20
2018-02-16T10:26:37.938Z,1.10
2018-02-16T10:27:37.927Z,1.30
2018-02-16T10:28:37.915Z,1.30
2018-02-16T10:29:37.902Z,1.20
2018-02-16T10:30:37.890Z,1.20
2018-02-16T10:31:37.878Z,1.10
2018-02-16T10:32:37.865Z,1.30
2018-02-16T10:33:37.852Z,1.30
2018-02-16T10:34:37.839Z,1.40
2018-02-16T10:35:37.834Z,1.40
2018-02-16T10:36:37.820Z,1.20
2018-02-16T10:37:37.800Z,1.20
2018-02-16T10:38:37.789Z,1.30
2018-02-16T10:39:37.775Z,1.20
2018-02-16T10:40:37.764Z,1.20
2018-02-16T10:41:37.752Z,1.20
2018-02-16T10:42:37.739Z,1.30
2018-02-16T10:43:37.731Z,1.30
2018-02-16T10:44:37.716Z,1.20
2018-02-16T10:45:37.701Z,1.20
2018-02-16T10:46:37.690Z,1.10
2018-02-16T10:47:37.676Z,1.20
2018-02-16T10:48:37.662Z,1.30
2018-02-16T10:49:37.650Z,1.20
2018-02-16T10:50:37.644Z,1.30
2018-02-16T10:51:37.627Z,1.20
2018-02-16T10:52:37.612Z,1.30
2018-02-16T10:53:37.616Z,1.40
2018-02-16T10:54:37.588Z,1.10
2018-02-16T10:55:37.576Z,1.10
2018-02-16T10:56:37.563Z,1.30
2018-02-16T10:57:37.549Z,1.20
2018-02-16T10:58:37.529Z,1.30
2018-02-16T10:59:37.524Z,1.00
2018-02-16T11:00:37.513Z,1.30
2018-02-16T11:01:37.509Z,1.30
2018-02-16T11:02:37.494Z,1.20
2018-02-16T11:03:37.476Z,1.20
2018-02-16T11:04:37.462Z,1.30
2018-02-16T11:05:37.450Z,1.30
2018-02-16T11:06:37.436Z,1.10
2018-02-16T11:07:37.424Z,1.40
2018-02-16T11:08:37.414Z,1.40
2018-02-16T11:09:37.400Z,1.40
2018-02-16T11:10:37.388Z,1.20
2018-02-16T11:11:37.375Z,1.30
2018-02-16T11:12:37.361Z,1.20
2018-02-16T11:13:37.348Z,1.20
2018-02-16T11:14:37.337Z,1.40
2018-02-16T11:15:37.324Z,1.20
2018-02-16T11:16:37.316Z,1.40
2018-02-16T11:17:37.299Z,1.20
2018-02-16T11:18:37.287Z,1.40
2018-02-16T11:19:37.282Z,1.40
2018-02-16T11:20:37.260Z,1.40
2018-02-16T11:21:37.249Z,1.30
2018-02-16T11:22:37.238Z,1.10
2018-02-16T11:23:37.223Z,1.30
2018-02-16T11:24:37.215Z,1.50
2018-02-16T11:25:37.201Z,1.40
2018-02-16T11:26:37.186Z,1.30
2018-02-16T11:27:37.176Z,1.30
2018-02-16T11:28:37.168Z,1.20
2018-02-16T11:29:37.152Z,1.20
2018-02-16T11:30:37.135Z,1.30
2018-02-16T11:31:37.123Z,1.20
2018-02-16T11:32:37.110Z,1.40
2018-02-16T11:33:37.109Z,1.50
2018-02-16T11:34:37.087Z,1.40
2018-02-16T11:35:37.072Z,1.30
2018-02-16T11:36:37.060Z,1.30
2018-02-16T11:37:37.044Z,1.30
2018-02-16T11:38:37.035Z,1.60
2018-02-16T11:39:37.023Z,1.30
2018-02-16T11:40:37.010Z,1.40
2018-02-16T11:41:36.997Z,1.70
2018-02-16T11:42:36.990Z,1.30
2018-02-16T11:43:36.972Z,1.30
2018-02-16T11:44:36.961Z,1.40
2018-02-16T11:45:36.951Z,1.20
2018-02-16T11:46:36.935Z,1.30
2018-02-16T11:47:36.924Z,1.30
2018-02-16T11:48:36.903Z,1.40
2018-02-16T11:49:36.899Z,1.30
2018-02-16T11:50:36.886Z,1.40
2018-02-16T11:51:36.870Z,1.40
2018-02-16T11:52:36.859Z,1.30
2018-02-16T11:53:36.847Z,1.30
2018-02-16T11:54:36.833Z,1.50
2018-02-16T11:55:36.822Z,1.30
2018-02-16T11:56:36.812Z,1.60
2018-02-16T11:57:36.798Z,1.40
2018-02-16T11:58:36.784Z,1.40
2018-02-16T11:59:36.770Z,1.30
2018-02-16T12:00:36.767Z,1.30
2018-02-16T12:01:36.802Z,1.40
2018-02-16T12:02:36.737Z,1.50
2018-02-16T12:03:36.721Z,1.30
2018-02-16T12:04:36.706Z,1.40
2018-02-16T12:05:36.696Z,1.30
2018-02-16T12:06:36.683Z,1.30
2018-02-16T12:07:36.671Z,1.40
2018-02-16T12:08:36.657Z,1.30
2018-02-16T12:09:36.643Z,1.40
2018-02-16T12:10:36.632Z,1.40
2018-02-16T12:11:36.620Z,1.50
2018-02-16T12:12:36.607Z,1.50
2018-02-16T12:13:36.594Z,1.50
2018-02-16T12:14:36.582Z,1.30
2018-02-16T12:15:36.570Z,1.50
2018-02-16T12:16:36.557Z,1.50
2018-02-16T12:17:36.544Z,1.30
2018-02-16T12:18:36.529Z,1.40
2018-02-16T12:19:36.520Z,1.40
2018-02-16T12:20:36.505Z,1.30
2018-02-16T12:21:36.494Z,1.40
2018-02-16T12:22:36.482Z,1.30
2018-02-16T12:23:36.469Z,1.30
2018-02-16T12:24:36.456Z,1.30
2018-02-16T12:25:36.444Z,1.30
2018-02-16T12:26:36.431Z,1.40
2018-02-16T12:27:36.420Z,1.40
2018-02-16T12:28:36.406Z,1.50
2018-02-16T12:29:36.396Z,1.30
2018-02-16T12:30:36.382Z,1.40
2018-02-16T12:31:36.369Z,1.20
2018-02-16T12:32:36.354Z,1.30
2018-02-16T12:33:36.342Z,1.40
2018-02-16T12:34:36.330Z,1.30
2018-02-16T12:35:36.322Z,1.40
2018-02-16T12:36:36.307Z,1.30
2018-02-16T12:37:36.290Z,1.40
2018-02-16T12:38:36.280Z,1.40
2018-02-16T12:39:36.263Z,1.40
2018-02-16T12:40:36.254Z,1.30
2018-02-16T12:41:36.244Z,1.40
2018-02-16T12:42:36.228Z,1.30
2018-02-16T12:43:36.216Z,1.40
2018-02-16T12:44:36.203Z,1.50
2018-02-16T12:45:36.191Z,1.50
2018-02-16T12:46:36.179Z,1.40
2018-02-16T12:47:36.167Z,1.50
2018-02-16T12:48:36.154Z,1.20
2018-02-16T12:49:36.141Z,1.50
2018-02-16T12:50:36.130Z,1.60
2018-02-16T12:51:36.114Z,1.40
2018-02-16T12:52:36.102Z,1.50
2018-02-16T12:53:36.090Z,1.50
2018-02-16T12:54:36.086Z,1.50
2018-02-16T12:55:36.070Z,1.50
2018-02-16T12:56:36.057Z,1.60
2018-02-16T12:57:36.040Z,1.30
2018-02-16T12:58:36.028Z,1.40
2018-02-16T12:59:36.015Z,1.40
2018-02-16T13:00:36.003Z,1.50
2018-02-16T13:01:35.990Z,1.40
2018-02-16T13:02:35.977Z,1.50
2018-02-16T13:03:35.965Z,1.50
2018-02-16T13:04:35.958Z,1.50
2018-02-16T13:05:35.941Z,1.50
2018-02-16T13:06:35.927Z,1.50
2018-02-16T13:07:35.925Z,1.40
2018-02-16T13:08:35.895Z,1.40
2018-02-16T13:09:35.892Z,1.30
2018-02-16T13:10:35.871Z,1.40
2018-02-16T13:11:35.864Z,1.50
2018-02-16T13:12:35.851Z,1.40
2018-02-16T13:13:35.850Z,1.30
2018-02-16T13:14:35.825Z,1.30
2018-02-16T13:15:35.814Z,1.30
2018-02-16T13:16:35.801Z,1.30
2018-02-16T13:17:35.789Z,1.40
2018-02-16T13:18:35.776Z,1.40